createdAt,value
2019-03-06T05:58:41.546Z,228
2019-03-06T05:59:49.691Z,252
2019-03-06T06:00:57.636Z,280
2019-03-06T06:02:05.709Z,312
2019-03-06T06:03:13.741Z,340
2019-03-06T06:04:21.825Z,376
2019-03-06T06:05:30.057Z,408
2019-03-06T06:06:37.929Z,444
2019-03-06T06:07:46.024Z,492
2019-03-06T06:08:54.034Z,532
2019-03-06T06:10:02.737Z,584
2019-03-06T06:11:10.148Z,640
2019-03-06T06:12:18.205Z,696
2019-03-06T06:13:26.274Z,760
2019-03-06T06:14:34.323Z,828
2019-03-06T06:15:42.370Z,900
2019-03-06T06:16:50.423Z,980
2019-03-06T06:17:58.466Z,1060
2019-03-06T06:19:06.567Z,1140
2019-03-06T06:20:14.597Z,1220
2019-03-06T06:21:22.641Z,1296
2019-03-06T06:22:30.718Z,1372
2019-03-06T06:23:38.741Z,1448
2019-03-06T06:24:46.815Z,1524
2019-03-06T06:25:54.860Z,1600
2019-03-06T06:27:02.915Z,1680
2019-03-06T06:28:10.984Z,1756
2019-03-06T06:29:19.018Z,1832
2019-03-06T06:30:27.094Z,1912
2019-03-06T06:31:35.133Z,1988
2019-03-06T06:32:43.187Z,2076
2019-03-06T06:33:51.265Z,2168
2019-03-06T06:34:59.297Z,2264
2019-03-06T06:36:07.364Z,2388
2019-03-06T06:37:15.425Z,2576
2019-03-06T06:38:23.463Z,3260
2019-03-06T06:39:31.535Z,4164
2019-03-06T06:40:39.590Z,4760
2019-03-06T06:41:47.662Z,5200
2019-03-06T06:42:55.709Z,5408
2019-03-06T06:44:03.745Z,6144
2019-03-06T06:45:11.810Z,6532
2019-03-06T06:46:19.856Z,5828
2019-03-06T06:47:27.925Z,5228
2019-03-06T06:48:35.967Z,5236
2019-03-06T06:49:44.029Z,4280
2019-03-06T06:51:00.938Z,3540
2019-03-06T06:52:00.128Z,4852
2019-03-06T06:53:08.208Z,6104
2019-03-06T06:54:16.273Z,6484
2019-03-06T06:55:24.330Z,7000
2019-03-06T06:56:32.394Z,6944
2019-03-06T06:57:40.427Z,7228
2019-03-06T06:58:48.497Z,7024
2019-03-06T06:59:56.560Z,6648
2019-03-06T07:01:04.616Z,5980
2019-03-06T07:02:12.679Z,5384
2019-03-06T07:03:22.299Z,5296
2019-03-06T07:04:28.756Z,4856
2019-03-06T07:05:36.839Z,4672
2019-03-06T07:06:44.899Z,4736
2019-03-06T07:07:52.967Z,4620
2019-03-06T07:09:01.021Z,5104
2019-03-06T07:10:09.073Z,5272
2019-03-06T07:11:17.125Z,4604
2019-03-06T07:12:25.206Z,4572
2019-03-06T07:13:33.259Z,5056
2019-03-06T07:14:41.309Z,5920
2019-03-06T07:15:49.356Z,6344
2019-03-06T07:16:57.608Z,6248
2019-03-06T07:18:05.484Z,6164
2019-03-06T07:19:13.557Z,7496
2019-03-06T07:20:21.638Z,8132
2019-03-06T07:21:29.693Z,7440
2019-03-06T07:22:37.763Z,7196
2019-03-06T07:23:45.811Z,7612
2019-03-06T07:24:53.882Z,7628
2019-03-06T07:26:01.929Z,7316
2019-03-06T07:27:09.963Z,7384
2019-03-06T07:28:18.029Z,6848
2019-03-06T07:29:26.066Z,6864
2019-03-06T07:30:34.128Z,6860
2019-03-06T07:31:42.186Z,6644
2019-03-06T07:32:50.246Z,6576
2019-03-06T07:33:58.292Z,6916
2019-03-06T07:35:06.373Z,8132
2019-03-06T07:36:14.430Z,10104
2019-03-06T07:37:28.509Z,10872
2019-03-06T07:38:30.556Z,11064
2019-03-06T07:39:38.618Z,11940
2019-03-06T07:40:46.699Z,13008
2019-03-06T07:41:55.652Z,14120
2019-03-06T07:43:02.785Z,14144
2019-03-06T07:44:10.847Z,13572
2019-03-06T07:45:18.892Z,13816
2019-03-06T07:46:26.970Z,12204
2019-03-06T07:47:35.021Z,13500
2019-03-06T07:48:43.089Z,15184
2019-03-06T07:49:51.153Z,15276
2019-03-06T07:50:59.225Z,13188
2019-03-06T07:52:07.267Z,14376
2019-03-06T07:53:15.327Z,18432
2019-03-06T07:54:23.386Z,18880
2019-03-06T07:55:31.449Z,16060
2019-03-06T07:56:39.525Z,14004
2019-03-06T07:57:47.574Z,13560
2019-03-06T07:58:55.635Z,13980
2019-03-06T08:00:03.696Z,14144
2019-03-06T08:01:16.949Z,13576
2019-03-06T08:02:19.816Z,11064
2019-03-06T08:03:27.879Z,10948
2019-03-06T08:04:35.937Z,12872
2019-03-06T08:05:44.005Z,12632
2019-03-06T08:06:52.067Z,12068
2019-03-06T08:08:00.121Z,14052
2019-03-06T08:09:08.184Z,13280
2019-03-06T08:10:16.242Z,8952
2019-03-06T08:11:24.316Z,5840
2019-03-06T08:12:32.361Z,4440
2019-03-06T08:13:40.413Z,4436
2019-03-06T08:14:48.486Z,5412
2019-03-06T08:15:56.554Z,5564
2019-03-06T08:17:04.624Z,5920
2019-03-06T08:18:12.683Z,6088
2019-03-06T08:19:20.752Z,5644
2019-03-06T08:20:28.773Z,5772
2019-03-06T08:21:36.865Z,5436
2019-03-06T08:22:44.926Z,4736
2019-03-06T08:23:52.995Z,4400
2019-03-06T08:25:01.060Z,5896
2019-03-06T08:26:09.084Z,6420
2019-03-06T08:27:17.180Z,5496
2019-03-06T08:28:25.226Z,4204
2019-03-06T08:29:33.334Z,4060
2019-03-06T08:30:43.270Z,3968
2019-03-06T08:31:49.432Z,3932
2019-03-06T08:32:57.475Z,3860
2019-03-06T08:34:05.531Z,3788
2019-03-06T08:35:13.606Z,3676
2019-03-06T08:36:21.657Z,3608
2019-03-06T08:37:29.727Z,3588
2019-03-06T08:38:37.786Z,3656
2019-03-06T08:39:45.849Z,3720
2019-03-06T08:41:03.498Z,3824
2019-03-06T08:42:01.973Z,3996
2019-03-06T08:43:10.043Z,4084
2019-03-06T08:44:18.101Z,4268
2019-03-06T08:45:26.167Z,4400
2019-03-06T08:46:34.228Z,4564
2019-03-06T08:47:42.279Z,4728
2019-03-06T08:48:50.338Z,4908
2019-03-06T08:49:58.394Z,5080
2019-03-06T08:51:06.488Z,5264
2019-03-06T08:52:14.574Z,5492
2019-03-06T08:53:22.623Z,5704
2019-03-06T08:54:30.685Z,6024
2019-03-06T08:55:38.724Z,6356
2019-03-06T08:56:46.796Z,6712
2019-03-06T08:57:54.863Z,7088
2019-03-06T08:59:02.933Z,7420
2019-03-06T09:00:10.948Z,7744
2019-03-06T09:01:19.004Z,8048
2019-03-06T09:02:27.081Z,8364
2019-03-06T09:03:35.145Z,8696
2019-03-06T09:04:43.231Z,9024
2019-03-06T09:05:51.277Z,9328
2019-03-06T09:06:59.321Z,9640
2019-03-06T09:08:07.383Z,9944
2019-03-06T09:09:15.442Z,10220
2019-03-06T09:10:23.516Z,10408
2019-03-06T09:11:31.578Z,10620
2019-03-06T09:12:39.632Z,10868
2019-03-06T09:13:47.688Z,11004
2019-03-06T09:14:55.771Z,11052
2019-03-06T09:16:03.841Z,11032
2019-03-06T09:17:11.925Z,11068
2019-03-06T09:18:19.983Z,11120
2019-03-06T09:19:29.196Z,11156
2019-03-06T09:20:40.804Z,11256
2019-03-06T09:21:44.344Z,11296
2019-03-06T09:22:52.410Z,11320
2019-03-06T09:24:00.457Z,11336
2019-03-06T09:25:08.545Z,11308
2019-03-06T09:26:16.585Z,11204
2019-03-06T09:27:24.661Z,11052
2019-03-06T09:28:32.727Z,10920
2019-03-06T09:29:40.795Z,10828
2019-03-06T09:30:48.830Z,10800
2019-03-06T09:31:56.914Z,10852
2019-03-06T09:33:04.989Z,11020
2019-03-06T09:34:13.027Z,11220
2019-03-06T09:35:21.099Z,11428
2019-03-06T09:36:29.164Z,11664
2019-03-06T09:37:37.234Z,11828
2019-03-06T09:38:45.293Z,11864
2019-03-06T09:39:53.356Z,11832
2019-03-06T09:41:01.409Z,11764
2019-03-06T09:42:09.484Z,11720
2019-03-06T09:43:17.561Z,11716
2019-03-06T09:44:25.631Z,11648
2019-03-06T09:45:33.687Z,11560
2019-03-06T09:46:41.737Z,11500
2019-03-06T09:47:49.810Z,11500
2019-03-06T09:48:58.023Z,11640
2019-03-06T09:50:05.942Z,11812
2019-03-06T09:51:14.000Z,11880
2019-03-06T09:52:22.065Z,11872
2019-03-06T09:53:30.141Z,11808
2019-03-06T09:54:38.217Z,11700
2019-03-06T09:55:46.265Z,11640
2019-03-06T09:56:55.738Z,11660
2019-03-06T09:58:03.801Z,11664
2019-03-06T09:59:13.681Z,11620
2019-03-06T10:00:37.965Z,11412
2019-03-06T10:02:06.207Z,11132
2019-03-06T10:02:54.262Z,10848
2019-03-06T10:06:34.822Z,10448
2019-03-06T10:07:42.884Z,10528
2019-03-06T10:08:50.935Z,10716
2019-03-06T10:09:59.496Z,10964
2019-03-06T10:11:07.062Z,11144
2019-03-06T10:12:15.149Z,11216
2019-03-06T10:13:23.192Z,11216
2019-03-06T10:14:31.271Z,11192
2019-03-06T10:15:39.316Z,11204
2019-03-06T10:16:48.933Z,11240
2019-03-06T10:17:55.460Z,11284
2019-03-06T10:19:03.540Z,11372
2019-03-06T10:20:11.604Z,11476
2019-03-06T10:21:19.652Z,11580
2019-03-06T10:22:27.733Z,11648
2019-03-06T10:23:35.798Z,11704
2019-03-06T10:24:43.846Z,11780
2019-03-06T10:25:51.907Z,11812
2019-03-06T10:27:01.405Z,11892
2019-03-06T10:28:08.079Z,11912
2019-03-06T10:29:16.161Z,11764
2019-03-06T10:30:26.791Z,11536
2019-03-06T10:31:34.867Z,11532
2019-03-06T10:32:42.936Z,11516
2019-03-06T10:33:51.003Z,11672
2019-03-06T10:34:59.047Z,11916
2019-03-06T10:36:07.144Z,12064
2019-03-06T10:37:15.190Z,12036
2019-03-06T10:38:23.276Z,11908
2019-03-06T10:39:31.333Z,11756
2019-03-06T10:40:39.371Z,11592
2019-03-06T10:41:47.470Z,11528
2019-03-06T10:42:55.523Z,11508
2019-03-06T10:44:03.582Z,11572
2019-03-06T10:45:11.664Z,11644
2019-03-06T10:46:19.704Z,11604
2019-03-06T10:47:27.772Z,11472
2019-03-06T10:48:35.843Z,11312
2019-03-06T10:49:43.910Z,11084
2019-03-06T10:50:51.964Z,10860
2019-03-06T10:52:00.042Z,10692
2019-03-06T10:53:08.131Z,10660
2019-03-06T10:54:16.208Z,10700
2019-03-06T10:55:24.272Z,10716
2019-03-06T10:56:32.336Z,10820
2019-03-06T10:57:40.405Z,10856
2019-03-06T10:58:48.466Z,10776
2019-03-06T10:59:56.513Z,10524
2019-03-06T11:01:04.569Z,10252
2019-03-06T11:02:12.637Z,9896
2019-03-06T11:03:20.707Z,9576
2019-03-06T11:04:28.743Z,9460
2019-03-06T11:05:36.829Z,9308
2019-03-06T11:06:44.888Z,9300
2019-03-06T11:07:52.971Z,9220
2019-03-06T11:09:01.046Z,9228
2019-03-06T11:10:09.075Z,9412
2019-03-06T11:11:17.175Z,9568
2019-03-06T11:12:25.237Z,9656
2019-03-06T11:13:33.309Z,9600
2019-03-06T11:14:41.361Z,9384
2019-03-06T11:15:55.530Z,9112
2019-03-06T11:16:57.521Z,8812
2019-03-06T11:18:05.567Z,8560
2019-03-06T11:19:13.674Z,8472
2019-03-06T11:20:21.699Z,8340
2019-03-06T11:21:29.771Z,8144
2019-03-06T11:22:37.825Z,8040
2019-03-06T11:23:45.913Z,7920
2019-03-06T11:24:53.963Z,7840
2019-03-06T11:26:02.058Z,7748
2019-03-06T11:27:10.091Z,7744
2019-03-06T11:28:18.173Z,7688
2019-03-06T11:29:26.230Z,7532
2019-03-06T11:30:34.279Z,7372
2019-03-06T11:31:42.359Z,7216
2019-03-06T11:32:54.353Z,7128
2019-03-06T11:33:58.474Z,6940
2019-03-06T11:35:06.569Z,6716
2019-03-06T11:36:14.635Z,6560
2019-03-06T11:37:22.697Z,6440
2019-03-06T11:38:30.749Z,6376
2019-03-06T11:39:38.790Z,6400
2019-03-06T11:40:46.873Z,6340
2019-03-06T11:41:54.952Z,6236
2019-03-06T11:43:03.000Z,6124
2019-03-06T11:44:11.111Z,5972
2019-03-06T11:45:19.140Z,5732
2019-03-06T11:46:27.237Z,5548
2019-03-06T11:47:35.313Z,5472
2019-03-06T11:48:44.190Z,5328
2019-03-06T11:49:51.411Z,5372
2019-03-06T11:50:59.449Z,5308
2019-03-06T11:52:07.522Z,5348
2019-03-06T11:53:15.603Z,5260
2019-03-06T11:54:23.668Z,5236
2019-03-06T11:55:31.722Z,5424
2019-03-06T11:56:39.800Z,5544
2019-03-06T11:57:47.878Z,5444
2019-03-06T11:58:55.930Z,5428
2019-03-06T12:00:03.999Z,5380
2019-03-06T12:01:12.058Z,5104
2019-03-06T12:02:20.132Z,4772
2019-03-06T12:03:28.197Z,4944
2019-03-06T12:04:36.260Z,4992
2019-03-06T12:05:44.328Z,5128
2019-03-06T12:06:52.394Z,5392
2019-03-06T12:08:00.446Z,5908
2019-03-06T12:09:08.504Z,6292
2019-03-06T12:10:16.626Z,6620
2019-03-06T12:11:24.694Z,6760
2019-03-06T12:12:32.737Z,6708
2019-03-06T12:13:40.807Z,6660
2019-03-06T12:14:48.853Z,6668
2019-03-06T12:15:56.964Z,6640
2019-03-06T12:17:05.022Z,6612
2019-03-06T12:18:13.045Z,6568
2019-03-06T12:19:21.112Z,6512
2019-03-06T12:20:29.175Z,6560
2019-03-06T12:21:37.277Z,6644
2019-03-06T12:22:45.329Z,6820
2019-03-06T12:23:53.385Z,7000
2019-03-06T12:25:01.444Z,7156
2019-03-06T12:26:09.521Z,7288
2019-03-06T12:27:17.564Z,7312
2019-03-06T12:28:25.638Z,7308
2019-03-06T12:29:33.712Z,7220
2019-03-06T12:30:41.768Z,7368
2019-03-06T12:31:49.845Z,7304
2019-03-06T12:32:57.917Z,7440
2019-03-06T12:34:05.966Z,7632
2019-03-06T12:35:14.038Z,7808
2019-03-06T12:36:22.104Z,8136
2019-03-06T12:37:30.176Z,8304
2019-03-06T12:38:40.095Z,8304
2019-03-06T12:39:46.303Z,8324
2019-03-06T12:40:54.381Z,8228
2019-03-06T12:42:02.440Z,8072
2019-03-06T12:43:10.501Z,7944
2019-03-06T12:44:18.537Z,7788
2019-03-06T12:45:27.323Z,7620
2019-03-06T12:46:34.699Z,7528
2019-03-06T12:47:42.779Z,7556
2019-03-06T12:48:50.841Z,7756
2019-03-06T12:50:05.377Z,8084
2019-03-06T12:51:06.966Z,8472
2019-03-06T12:52:15.032Z,8868
2019-03-06T12:53:23.097Z,9208
2019-03-06T12:54:31.172Z,9528
2019-03-06T12:55:39.227Z,9792
2019-03-06T12:56:47.295Z,9944
2019-03-06T12:57:59.263Z,10000
2019-03-06T12:59:03.435Z,9964
2019-03-06T13:00:11.486Z,9856
2019-03-06T13:01:19.558Z,9720
2019-03-06T13:02:27.704Z,9656
2019-03-06T13:03:35.702Z,9648
2019-03-06T13:04:43.753Z,9696
2019-03-06T13:05:51.820Z,9788
2019-03-06T13:06:59.962Z,9856
2019-03-06T13:08:07.950Z,9876
2019-03-06T13:09:16.059Z,9868
2019-03-06T13:10:24.097Z,9896
2019-03-06T13:11:32.193Z,9968
2019-03-06T13:12:40.225Z,10056
2019-03-06T13:13:48.319Z,10124
2019-03-06T13:14:56.362Z,10160
2019-03-06T13:16:04.437Z,10176
2019-03-06T13:17:12.486Z,10048
2019-03-06T13:18:20.569Z,9844
2019-03-06T13:19:28.615Z,9676
2019-03-06T13:20:36.684Z,9652
2019-03-06T13:21:44.760Z,9760
2019-03-06T13:22:52.835Z,9988
2019-03-06T13:24:01.086Z,10248
2019-03-06T13:25:09.136Z,10420
2019-03-06T13:26:19.631Z,10484
2019-03-06T13:27:27.714Z,10456
2019-03-06T13:28:35.778Z,10320
2019-03-06T13:29:45.511Z,10076
2019-03-06T13:30:56.362Z,9832
2019-03-06T13:32:11.593Z,9684
2019-03-06T13:33:16.729Z,9664
2019-03-06T13:34:24.782Z,9708
2019-03-06T13:35:32.845Z,9792
2019-03-06T13:36:40.909Z,9844
2019-03-06T13:37:48.977Z,9812
2019-03-06T13:39:05.915Z,9720
2019-03-06T13:40:05.156Z,9612
2019-03-06T13:41:13.184Z,9524
2019-03-06T13:42:21.266Z,9452
2019-03-06T13:43:29.310Z,9420
2019-03-06T13:44:37.398Z,9444
2019-03-06T13:45:46.847Z,9472
2019-03-06T13:46:54.928Z,9464
2019-03-06T13:48:03.018Z,9448
2019-03-06T13:49:11.066Z,9416
2019-03-06T13:50:19.107Z,9376
2019-03-06T13:52:44.384Z,9300
2019-03-06T13:53:52.453Z,9288
2019-03-06T13:55:00.677Z,9284
2019-03-06T13:56:08.532Z,9236
2019-03-06T13:57:16.617Z,9092
2019-03-06T13:58:24.721Z,8884
2019-03-06T13:59:32.787Z,8644
2019-03-06T14:00:40.809Z,8400
2019-03-06T14:01:48.877Z,8184
2019-03-06T14:02:56.951Z,8004
2019-03-06T14:04:05.041Z,7916
2019-03-06T14:05:13.092Z,7928
2019-03-06T14:06:21.154Z,8012
2019-03-06T14:07:29.256Z,8064
2019-03-06T14:08:37.299Z,8024
2019-03-06T14:09:45.378Z,7872
2019-03-06T14:10:53.427Z,7748
2019-03-06T14:12:01.507Z,7708
2019-03-06T14:13:09.559Z,7700
2019-03-06T14:14:18.814Z,7728
2019-03-06T14:15:25.702Z,7792
2019-03-06T14:16:33.763Z,7828
2019-03-06T14:17:41.846Z,7820
2019-03-06T14:18:49.910Z,7760
2019-03-06T14:19:57.975Z,7644
2019-03-06T14:21:06.021Z,7520
2019-03-06T14:22:14.105Z,7440
2019-03-06T14:23:22.213Z,7412
2019-03-06T14:24:30.233Z,7436
2019-03-06T14:25:38.297Z,7476
2019-03-06T14:26:46.382Z,7460
2019-03-06T14:27:54.454Z,7380
2019-03-06T14:29:02.507Z,7256
2019-03-06T14:30:10.591Z,7080
2019-03-06T14:31:18.626Z,6832
2019-03-06T14:32:26.699Z,6520
2019-03-06T14:33:34.776Z,6208
2019-03-06T14:34:42.863Z,5956
2019-03-06T14:35:50.913Z,5840
2019-03-06T14:36:58.962Z,5848
2019-03-06T14:38:07.051Z,5928
2019-03-06T14:39:15.126Z,5976
2019-03-06T14:40:23.188Z,5932
2019-03-06T14:41:31.234Z,5824
2019-03-06T14:42:39.295Z,5640
2019-03-06T14:43:47.394Z,5432
2019-03-06T14:44:55.444Z,5224
2019-03-06T14:46:03.529Z,5040
2019-03-06T14:47:12.360Z,4888
2019-03-06T14:48:19.660Z,4792
2019-03-06T14:49:27.753Z,4772
2019-03-06T14:50:35.790Z,4796
2019-03-06T14:51:43.847Z,4828
2019-03-06T14:52:51.928Z,4832
2019-03-06T14:53:59.986Z,4768
2019-03-06T14:55:08.039Z,4684
2019-03-06T14:56:16.102Z,4612
2019-03-06T14:57:24.174Z,4576
2019-03-06T14:58:32.236Z,4584
2019-03-06T14:59:40.324Z,4640
2019-03-06T15:00:54.234Z,4708
2019-03-06T15:02:02.294Z,4740
2019-03-06T15:03:10.356Z,4744
2019-03-06T15:04:18.414Z,4676
2019-03-06T15:05:26.508Z,4528
2019-03-06T15:06:34.570Z,4376
2019-03-06T15:07:42.648Z,4272
2019-03-06T15:08:50.707Z,4220
2019-03-06T15:09:58.736Z,4216
2019-03-06T15:11:06.831Z,4224
2019-03-06T15:12:14.925Z,4188
2019-03-06T15:13:22.998Z,4132
2019-03-06T15:14:35.931Z,4048
2019-03-06T15:15:39.113Z,3976
2019-03-06T15:16:47.187Z,3920
2019-03-06T15:17:55.275Z,3940
2019-03-06T15:19:03.315Z,4008
2019-03-06T15:20:11.353Z,4088
2019-03-06T15:21:19.414Z,4188
2019-03-06T15:22:27.510Z,4276
2019-03-06T15:23:36.538Z,4428
2019-03-06T15:24:43.619Z,4604
2019-03-06T15:25:53.096Z,4784
2019-03-06T15:26:59.792Z,4896
2019-03-06T15:28:12.051Z,4984
2019-03-06T15:29:20.130Z,5036
2019-03-06T15:30:28.190Z,5064
2019-03-06T15:31:36.249Z,5080
2019-03-06T15:32:44.321Z,5044
2019-03-06T15:33:52.376Z,4932
2019-03-06T15:35:00.440Z,4792
2019-03-06T15:36:08.529Z,4624
2019-03-06T15:37:16.580Z,4452
2019-03-06T15:38:24.639Z,4292
2019-03-06T15:39:42.138Z,4160
2019-03-06T15:40:40.766Z,4052
2019-03-06T15:41:48.812Z,3960
2019-03-06T15:42:56.910Z,3892
2019-03-06T15:44:04.965Z,3860
2019-03-06T15:45:13.039Z,3832
2019-03-06T15:46:21.114Z,3792
2019-03-06T15:47:33.556Z,3756
2019-03-06T15:48:37.223Z,3744
2019-03-06T15:49:45.310Z,3796
2019-03-06T15:50:53.361Z,3848
2019-03-06T15:52:01.429Z,3888
2019-03-06T15:53:09.522Z,3912
2019-03-06T15:54:17.590Z,3860
2019-03-06T15:55:25.682Z,3788
2019-03-06T15:56:33.694Z,3676
2019-03-06T15:57:41.760Z,3556
2019-03-06T15:58:49.822Z,3444
2019-03-06T15:59:57.920Z,3364
2019-03-06T16:01:05.976Z,3300
2019-03-06T16:02:14.026Z,3280
2019-03-06T16:03:22.079Z,3300
2019-03-06T16:04:30.145Z,3336
2019-03-06T16:05:38.206Z,3364
2019-03-06T16:06:53.714Z,3360
2019-03-06T16:07:54.327Z,3332
2019-03-06T16:09:02.423Z,3280
2019-03-06T16:10:10.485Z,3216
2019-03-06T16:11:19.771Z,3156
2019-03-06T16:12:26.589Z,3080
2019-03-06T16:13:34.653Z,3000
2019-03-06T16:14:42.731Z,2928
2019-03-06T16:15:50.796Z,2864
2019-03-06T16:16:58.824Z,2784
2019-03-06T16:18:06.913Z,2684
2019-03-06T16:19:14.979Z,2544
2019-03-06T16:20:23.046Z,2376
2019-03-06T16:21:31.128Z,2208
2019-03-06T16:22:39.207Z,2060
2019-03-06T16:23:47.284Z,1920
2019-03-06T16:24:55.340Z,1780
2019-03-06T16:26:03.371Z,1668
2019-03-06T16:27:11.441Z,1560
2019-03-06T16:28:19.539Z,1464
2019-03-06T16:29:27.568Z,1380
2019-03-06T16:30:35.619Z,1304
2019-03-06T16:31:43.693Z,1240
2019-03-06T16:32:51.756Z,1188
2019-03-06T16:33:59.839Z,1144
2019-03-06T16:35:07.885Z,1112
2019-03-06T16:36:15.978Z,1084
2019-03-06T16:37:24.001Z,1060
2019-03-06T16:38:32.076Z,1040
2019-03-06T16:39:40.130Z,1020
2019-03-06T16:40:48.229Z,996
2019-03-06T16:41:56.280Z,972
2019-03-06T16:43:04.368Z,948
2019-03-06T16:44:12.398Z,920
2019-03-06T16:45:20.490Z,880
2019-03-06T16:46:28.521Z,840
2019-03-06T16:47:36.590Z,800
2019-03-06T16:48:44.710Z,752
2019-03-06T16:49:52.708Z,708
2019-03-06T16:51:00.768Z,660
2019-03-06T16:52:08.816Z,628
2019-03-06T16:53:16.912Z,592
2019-03-06T16:54:24.995Z,548
2019-03-06T16:55:33.029Z,500
2019-03-06T16:56:41.103Z,456
2019-03-06T16:57:49.156Z,408
2019-03-06T16:58:57.236Z,372
2019-03-06T17:00:05.287Z,336
2019-03-06T17:01:13.326Z,308
2019-03-06T17:02:22.019Z,284
2019-03-06T17:03:30.079Z,244
2019-03-06T17:04:38.157Z,204
2019-03-06T17:05:46.253Z,168
2019-03-06T17:06:54.273Z,148
2019-03-06T17:08:02.336Z,120
2019-03-06T17:09:10.403Z,96
2019-03-06T17:10:18.439Z,76
2019-03-06T17:11:26.538Z,64
2019-03-06T17:12:34.609Z,56
2019-03-06T17:13:42.643Z,48
2019-03-06T17:14:50.738Z,44
2019-03-06T17:15:58.750Z,44
2019-03-06T17:17:06.833Z,40
2019-03-06T17:18:14.890Z,40
2019-03-06T17:19:22.949Z,36
2019-03-06T17:20:31.037Z,32
2019-03-06T17:21:39.068Z,28
2019-03-06T17:22:47.180Z,24
2019-03-06T17:23:55.193Z,20
2019-03-06T17:25:03.255Z,20
2019-03-06T17:26:11.340Z,12
2019-03-06T17:27:19.372Z,12
2019-03-06T17:28:27.543Z,12
2019-03-06T17:29:35.508Z,8
2019-03-06T17:30:43.649Z,8
2019-03-06T17:31:51.638Z,8
2019-03-06T17:32:59.709Z,4
2019-03-06T17:34:07.764Z,4
2019-03-06T17:35:15.828Z,4
2019-03-06T17:36:23.874Z,4
2019-03-06T17:37:31.969Z,4
2019-03-06T17:38:40.007Z,0
2019-03-06T17:39:48.061Z,0
2019-03-06T17:40:56.172Z,0
2019-03-06T17:42:04.221Z,0
2019-03-06T17:43:12.257Z,0
2019-03-06T17:44:20.317Z,0
2019-03-06T17:45:28.371Z,0
2019-03-06T17:46:36.449Z,0
2019-03-06T17:47:44.498Z,0
2019-03-06T17:48:52.581Z,0
2019-03-06T17:50:00.650Z,0
2019-03-06T17:51:08.718Z,0
2019-03-06T17:52:16.750Z,0
2019-03-06T17:53:24.813Z,0
2019-03-06T17:54:32.897Z,0
2019-03-06T17:55:40.937Z,0
2019-03-06T17:56:48.973Z,0
2019-03-06T17:57:58.421Z,0
2019-03-06T17:59:05.135Z,0
2019-03-06T18:00:16.797Z,0
2019-03-06T18:01:21.371Z,0
2019-03-06T18:02:29.286Z,0
2019-03-06T18:03:37.370Z,0
2019-03-06T18:04:45.432Z,0
2019-03-06T18:05:53.488Z,0
2019-03-06T18:07:01.554Z,0
2019-03-06T18:08:11.388Z,0
2019-03-06T18:09:17.664Z,0
2019-03-06T18:10:25.725Z,0
2019-03-06T18:11:33.787Z,0
2019-03-06T18:12:41.860Z,0
2019-03-06T18:13:49.912Z,0
2019-03-06T18:14:57.988Z,0
2019-03-06T18:16:06.073Z,0
2019-03-06T18:17:14.102Z,0
2019-03-06T18:18:22.157Z,0
2019-03-06T18:19:30.226Z,0
2019-03-06T18:20:38.268Z,0
2019-03-06T18:21:46.339Z,0
2019-03-06T18:22:55.204Z,0
2019-03-06T18:24:02.473Z,0
2019-03-06T18:25:10.525Z,0
2019-03-06T18:26:18.574Z,0
2019-03-06T18:27:26.806Z,0
2019-03-06T18:28:34.710Z,0
2019-03-06T18:29:42.777Z,0
2019-03-06T18:30:50.838Z,0
2019-03-06T18:31:58.871Z,0
2019-03-06T18:33:07.050Z,0
2019-03-06T18:34:15.007Z,0
2019-03-06T18:35:23.073Z,0
2019-03-06T18:36:31.127Z,0
2019-03-06T18:37:39.196Z,0
2019-03-06T18:38:47.269Z,0
2019-03-06T18:39:55.296Z,0
2019-03-06T18:41:03.371Z,0
2019-03-06T18:42:11.442Z,0
2019-03-06T18:43:19.555Z,0
2019-03-06T18:44:27.587Z,0
2019-03-06T18:45:35.623Z,0
2019-03-06T18:46:43.678Z,0
2019-03-06T18:47:51.750Z,0
2019-03-06T18:48:59.808Z,0
2019-03-06T18:50:07.864Z,0
2019-03-06T18:51:15.939Z,0
2019-03-06T18:52:23.979Z,0
2019-03-06T18:53:32.054Z,0
2019-03-06T18:54:40.109Z,0
2019-03-06T18:55:48.171Z,0
2019-03-06T18:56:56.247Z,0
2019-03-06T18:58:04.284Z,0
2019-03-06T18:59:12.346Z,0
2019-03-06T19:00:20.423Z,0
2019-03-06T19:01:28.471Z,0
2019-03-06T19:02:36.573Z,0
2019-03-06T19:03:44.620Z,0
2019-03-06T19:04:52.731Z,0
2019-03-06T19:06:00.709Z,0
2019-03-06T19:07:08.761Z,0
2019-03-06T19:08:16.955Z,0
2019-03-06T19:09:24.899Z,0
2019-03-06T19:10:33.002Z,0
2019-03-06T19:11:41.026Z,4
2019-03-06T19:12:49.061Z,4
2019-03-06T19:13:57.135Z,4
2019-03-06T19:15:05.205Z,4
2019-03-06T19:16:13.255Z,4
2019-03-06T19:17:21.321Z,4
2019-03-06T19:18:29.385Z,4
2019-03-06T19:19:37.488Z,4
2019-03-06T19:20:45.517Z,4
2019-03-06T19:21:53.581Z,4
2019-03-06T19:23:01.633Z,4
2019-03-06T19:24:09.696Z,0
2019-03-06T19:25:17.744Z,0
2019-03-06T19:26:25.811Z,0
2019-03-06T19:27:33.923Z,0
2019-03-06T19:28:41.970Z,0
2019-03-06T19:29:49.993Z,0
2019-03-06T19:30:58.060Z,0
2019-03-06T19:32:06.108Z,0
2019-03-06T19:33:14.177Z,0
2019-03-06T19:34:22.228Z,0
2019-03-06T19:35:30.311Z,0
2019-03-06T19:36:38.527Z,0
2019-03-06T19:37:46.417Z,0
2019-03-06T19:38:54.477Z,0
2019-03-06T19:40:02.543Z,0
2019-03-06T19:41:10.584Z,0
2019-03-06T19:42:18.635Z,0
2019-03-06T19:43:26.720Z,0
2019-03-06T19:44:34.815Z,0
2019-03-06T19:45:42.831Z,0
2019-03-06T19:46:50.894Z,0
2019-03-06T19:47:58.929Z,0
2019-03-06T19:49:07.127Z,0
2019-03-06T19:50:15.087Z,0
2019-03-06T19:51:23.173Z,0
2019-03-06T19:52:31.459Z,0
2019-03-06T19:53:39.283Z,0
2019-03-06T19:54:48.917Z,0
2019-03-06T19:55:55.412Z,0
2019-03-06T19:57:03.445Z,0
2019-03-06T19:58:11.509Z,0
2019-03-06T19:59:19.570Z,0
2019-03-06T20:00:29.271Z,0
2019-03-06T20:01:35.691Z,0
2019-03-06T20:02:43.746Z,0
2019-03-06T20:03:51.816Z,0
2019-03-06T20:04:59.874Z,4
2019-03-06T20:06:07.934Z,0
2019-03-06T20:07:15.989Z,0
2019-03-06T20:08:24.046Z,0
2019-03-06T20:09:32.096Z,0
2019-03-06T20:10:40.186Z,0
2019-03-06T20:11:48.222Z,0
2019-03-06T20:12:56.274Z,0
2019-03-06T20:14:04.344Z,0
2019-03-06T20:15:12.414Z,0
2019-03-06T20:16:20.515Z,0
2019-03-06T20:17:28.518Z,0
2019-03-06T20:18:36.596Z,0
2019-03-06T20:19:44.812Z,0
2019-03-06T20:20:52.712Z,0
2019-03-06T20:22:02.122Z,0
2019-03-06T20:23:08.842Z,0
2019-03-06T20:24:16.899Z,0
2019-03-06T20:25:24.960Z,0
2019-03-06T20:26:33.019Z,0
2019-03-06T20:27:41.061Z,0
2019-03-06T20:28:49.103Z,0
2019-03-06T20:29:57.189Z,0
2019-03-06T20:31:05.232Z,0
2019-03-06T20:32:13.728Z,0
2019-03-06T20:33:21.365Z,0
2019-03-06T20:34:29.404Z,0
2019-03-06T20:35:37.506Z,0
2019-03-06T20:36:45.731Z,0
2019-03-06T20:37:53.610Z,0
2019-03-06T20:39:01.664Z,0
2019-03-06T20:40:09.729Z,0
2019-03-06T20:41:17.784Z,0
2019-03-06T20:42:25.838Z,0
2019-03-06T20:43:33.935Z,0
2019-03-06T20:44:41.975Z,0
2019-03-06T20:45:50.032Z,0
2019-03-06T20:46:58.087Z,0
2019-03-06T20:48:06.141Z,0
2019-03-06T20:49:14.219Z,0
2019-03-06T20:50:22.266Z,0
2019-03-06T20:51:30.320Z,0
2019-03-06T20:52:40.378Z,0
2019-03-06T20:53:46.437Z,0
2019-03-06T20:54:54.487Z,0
2019-03-06T20:56:02.569Z,0
2019-03-06T20:57:10.673Z,0
2019-03-06T20:58:18.665Z,0
2019-03-06T20:59:26.747Z,0
2019-03-06T21:00:34.805Z,0
2019-03-06T21:01:42.869Z,0
2019-03-06T21:02:50.929Z,0
2019-03-06T21:03:58.966Z,0
2019-03-06T21:05:07.064Z,0
2019-03-06T21:06:15.122Z,0
2019-03-06T21:07:23.172Z,0
2019-03-06T21:08:31.233Z,0
2019-03-06T21:09:39.346Z,0
2019-03-06T21:10:47.443Z,0
2019-03-06T21:11:55.404Z,0
2019-03-06T21:13:03.792Z,0
2019-03-06T21:14:11.521Z,0
2019-03-06T21:15:19.612Z,0
2019-03-06T21:16:27.644Z,0
2019-03-06T21:17:35.713Z,0
2019-03-06T21:18:43.856Z,0
2019-03-06T21:19:51.826Z,0
2019-03-06T21:20:59.902Z,0
2019-03-06T21:22:07.957Z,0
2019-03-06T21:23:16.014Z,0
2019-03-06T21:24:24.109Z,0
2019-03-06T21:25:32.120Z,0
2019-03-06T21:26:40.218Z,0
2019-03-06T21:27:48.235Z,0
2019-03-06T21:28:56.320Z,0
2019-03-06T21:30:04.366Z,0